Boyceville, Wisconsin
Current Conditions -  °F | °C
As of 9:15 AM on Thursday 18 Dec 2014 (Local Time) from KLUM Reporting Station
Overcast Overcast  
Wind Chill: 24°   Ceiling: 1400
Heat Index: 24°   Visibility: 10mi
Dew Point: 19°   Wind: 0mph
Humidity: 84%   Direction: NA
Pressure: 30.3"   Gusts: NA
Location:  45.04°N, 92.04°W
Report Text: KLUM 181515Z AUTO 00000KT 10SM OVC014 M05/M07 A3030 RMK AO2 T10461070
Loading
Personal Weather Stations






























Interactive Weather Map New forecast layout! Learn more

10-Day Weather Forecast

Advertisements
Track Severe Weather on mobile